sensor_id;sensor_type;location;lat;lon;timestamp;temperature;humidity
52867;DHT22;38739;53.324;6.862;2023-10-09T00:00:08;13.40;99.90
52867;DHT22;38739;53.324;6.862;2023-10-09T00:02:53;13.40;99.90
52867;DHT22;38739;53.324;6.862;2023-10-09T00:05:19;13.40;99.90
52867;DHT22;38739;53.324;6.862;2023-10-09T00:07:49;13.40;99.90
52867;DHT22;38739;53.324;6.862;2023-10-09T00:10:21;13.40;99.90
52867;DHT22;38739;53.324;6.862;2023-10-09T00:12:47;13.40;99.90
52867;DHT22;38739;53.324;6.862;2023-10-09T00:15:15;13.40;99.90
52867;DHT22;38739;53.324;6.862;2023-10-09T00:17:44;13.40;99.90
52867;DHT22;38739;53.324;6.862;2023-10-09T00:20:13;13.40;99.90
52867;DHT22;38739;53.324;6.862;2023-10-09T00:22:47;13.40;99.90
52867;DHT22;38739;53.324;6.862;2023-10-09T00:25:13;13.40;99.90
52867;DHT22;38739;53.324;6.862;2023-10-09T00:27:47;13.40;99.90
52867;DHT22;38739;53.324;6.862;2023-10-09T00:30:15;13.50;99.90
52867;DHT22;38739;53.324;6.862;2023-10-09T00:32:47;13.40;99.90
52867;DHT22;38739;53.324;6.862;2023-10-09T00:35:26;13.40;99.90
52867;DHT22;38739;53.324;6.862;2023-10-09T00:38:02;13.40;99.90
52867;DHT22;38739;53.324;6.862;2023-10-09T00:40:38;13.40;99.90
52867;DHT22;38739;53.324;6.862;2023-10-09T00:43:11;13.40;99.90
52867;DHT22;38739;53.324;6.862;2023-10-09T00:45:39;13.40;99.90
52867;DHT22;38739;53.324;6.862;2023-10-09T00:48:09;13.40;99.90
52867;DHT22;38739;53.324;6.862;2023-10-09T00:50:35;13.40;99.90
52867;DHT22;38739;53.324;6.862;2023-10-09T00:53:02;13.40;99.90
52867;DHT22;38739;53.324;6.862;2023-10-09T00:55:33;13.40;99.90
52867;DHT22;38739;53.324;6.862;2023-10-09T00:58:09;13.40;99.90
52867;DHT22;38739;53.324;6.862;2023-10-09T01:00:43;13.40;99.90
52867;DHT22;38739;53.324;6.862;2023-10-09T01:03:09;13.40;99.90
52867;DHT22;38739;53.324;6.862;2023-10-09T01:05:51;13.40;99.90
52867;DHT22;38739;53.324;6.862;2023-10-09T01:08:22;13.40;99.90
52867;DHT22;38739;53.324;6.862;2023-10-09T01:10:54;13.40;99.90
52867;DHT22;38739;53.324;6.862;2023-10-09T01:13:34;13.40;99.90
52867;DHT22;38739;53.324;6.862;2023-10-09T01:16:26;13.40;99.90
52867;DHT22;38739;53.324;6.862;2023-10-09T01:18:53;13.40;99.90
52867;DHT22;38739;53.324;6.862;2023-10-09T01:21:23;13.40;99.90
52867;DHT22;38739;53.324;6.862;2023-10-09T01:23:51;13.40;99.90
52867;DHT22;38739;53.324;6.862;2023-10-09T01:26:33;13.40;99.90
52867;DHT22;38739;53.324;6.862;2023-10-09T01:31:47;13.40;99.90
52867;DHT22;38739;53.324;6.862;2023-10-09T01:36:57;13.40;99.90
52867;DHT22;38739;53.324;6.862;2023-10-09T01:39:25;13.40;99.90
52867;DHT22;38739;53.324;6.862;2023-10-09T01:41:56;13.40;99.90
52867;DHT22;38739;53.324;6.862;2023-10-09T01:44:28;13.40;99.90
52867;DHT22;38739;53.324;6.862;2023-10-09T01:46:56;13.40;99.90
52867;DHT22;38739;53.324;6.862;2023-10-09T01:49:24;13.50;99.90
52867;DHT22;38739;53.324;6.862;2023-10-09T01:51:57;13.50;99.90
52867;DHT22;38739;53.324;6.862;2023-10-09T01:54:32;13.50;99.90
52867;DHT22;38739;53.324;6.862;2023-10-09T01:57:08;13.50;99.90
52867;DHT22;38739;53.324;6.862;2023-10-09T01:59:40;13.50;99.90
52867;DHT22;38739;53.324;6.862;2023-10-09T02:02:13;13.50;99.90
52867;DHT22;38739;53.324;6.862;2023-10-09T02:05:05;13.50;99.90
52867;DHT22;38739;53.324;6.862;2023-10-09T02:07:31;13.50;99.90
52867;DHT22;38739;53.324;6.862;2023-10-09T02:10:07;13.50;99.90
52867;DHT22;38739;53.324;6.862;2023-10-09T02:12:57;13.50;99.90
52867;DHT22;38739;53.324;6.862;2023-10-09T02:15:30;13.50;99.90
52867;DHT22;38739;53.324;6.862;2023-10-09T02:18:09;13.60;99.90
52867;DHT22;38739;53.324;6.862;2023-10-09T02:20:48;13.60;99.90
52867;DHT22;38739;53.324;6.862;2023-10-09T02:23:27;13.60;99.90
52867;DHT22;38739;53.324;6.862;2023-10-09T02:26:05;13.60;99.90
52867;DHT22;38739;53.324;6.862;2023-10-09T02:28:35;13.60;99.90
52867;DHT22;38739;53.324;6.862;2023-10-09T02:31:09;13.60;99.90
52867;DHT22;38739;53.324;6.862;2023-10-09T02:33:36;13.60;99.90
52867;DHT22;38739;53.324;6.862;2023-10-09T02:36:08;13.60;99.90
52867;DHT22;38739;53.324;6.862;2023-10-09T02:38:34;13.60;99.90
52867;DHT22;38739;53.324;6.862;2023-10-09T02:41:06;13.60;99.90
52867;DHT22;38739;53.324;6.862;2023-10-09T02:43:33;13.60;99.90
52867;DHT22;38739;53.324;6.862;2023-10-09T02:46:06;13.60;99.90
52867;DHT22;38739;53.324;6.862;2023-10-09T02:48:56;13.60;99.90
52867;DHT22;38739;53.324;6.862;2023-10-09T02:51:27;13.50;99.90
52867;DHT22;38739;53.324;6.862;2023-10-09T02:53:57;13.60;99.90
52867;DHT22;38739;53.324;6.862;2023-10-09T02:56:24;13.60;99.90
52867;DHT22;38739;53.324;6.862;2023-10-09T02:58:53;13.60;99.90
52867;DHT22;38739;53.324;6.862;2023-10-09T03:01:21;13.60;99.90
52867;DHT22;38739;53.324;6.862;2023-10-09T03:03:47;13.60;99.90
52867;DHT22;38739;53.324;6.862;2023-10-09T03:06:14;13.60;99.90
52867;DHT22;38739;53.324;6.862;2023-10-09T03:08:54;13.50;99.90
52867;DHT22;38739;53.324;6.862;2023-10-09T03:11:22;13.60;99.90
52867;DHT22;38739;53.324;6.862;2023-10-09T03:13:49;13.60;99.90
52867;DHT22;38739;53.324;6.862;2023-10-09T03:16:16;13.60;99.90
52867;DHT22;38739;53.324;6.862;2023-10-09T03:18:52;13.60;99.90
52867;DHT22;38739;53.324;6.862;2023-10-09T03:21:18;13.60;99.90
52867;DHT22;38739;53.324;6.862;2023-10-09T03:23:48;13.60;99.90
52867;DHT22;38739;53.324;6.862;2023-10-09T03:26:18;13.60;99.90
52867;DHT22;38739;53.324;6.862;2023-10-09T03:28:48;13.60;99.90
52867;DHT22;38739;53.324;6.862;2023-10-09T03:31:14;13.60;99.90
52867;DHT22;38739;53.324;6.862;2023-10-09T03:33:40;13.60;99.90
52867;DHT22;38739;53.324;6.862;2023-10-09T03:36:07;13.60;99.90
52867;DHT22;38739;53.324;6.862;2023-10-09T03:38:39;13.60;99.90
52867;DHT22;38739;53.324;6.862;2023-10-09T03:41:05;13.60;99.90
52867;DHT22;38739;53.324;6.862;2023-10-09T03:43:35;13.60;99.90
52867;DHT22;38739;53.324;6.862;2023-10-09T03:46:05;13.70;99.90
52867;DHT22;38739;53.324;6.862;2023-10-09T03:48:39;13.70;99.90
52867;DHT22;38739;53.324;6.862;2023-10-09T03:51:09;13.60;99.90
52867;DHT22;38739;53.324;6.862;2023-10-09T03:53:37;13.70;99.90
52867;DHT22;38739;53.324;6.862;2023-10-09T03:56:04;13.70;99.90
52867;DHT22;38739;53.324;6.862;2023-10-09T03:58:38;13.70;99.90
52867;DHT22;38739;53.324;6.862;2023-10-09T04:01:15;13.70;99.90
52867;DHT22;38739;53.324;6.862;2023-10-09T04:04:04;13.70;99.90
52867;DHT22;38739;53.324;6.862;2023-10-09T04:06:32;13.70;99.90
52867;DHT22;38739;53.324;6.862;2023-10-09T04:09:08;13.80;99.90
52867;DHT22;38739;53.324;6.862;2023-10-09T04:11:50;13.80;99.90
52867;DHT22;38739;53.324;6.862;2023-10-09T04:14:43;13.80;99.90
52867;DHT22;38739;53.324;6.862;2023-10-09T04:17:23;13.80;99.90
52867;DHT22;38739;53.324;6.862;2023-10-09T04:19:54;13.80;99.90
52867;DHT22;38739;53.324;6.862;2023-10-09T04:22:39;13.80;99.90
52867;DHT22;38739;53.324;6.862;2023-10-09T04:25:08;13.80;99.90
52867;DHT22;38739;53.324;6.862;2023-10-09T04:27:40;13.80;99.90
52867;DHT22;38739;53.324;6.862;2023-10-09T04:30:07;13.80;99.90
52867;DHT22;38739;53.324;6.862;2023-10-09T04:32:33;13.90;99.90
52867;DHT22;38739;53.324;6.862;2023-10-09T04:35:00;13.90;99.90
52867;DHT22;38739;53.324;6.862;2023-10-09T04:37:45;13.90;99.90
52867;DHT22;38739;53.324;6.862;2023-10-09T04:40:18;13.90;99.90
52867;DHT22;38739;53.324;6.862;2023-10-09T04:43:03;13.90;99.90
52867;DHT22;38739;53.324;6.862;2023-10-09T04:45:41;13.90;99.90
52867;DHT22;38739;53.324;6.862;2023-10-09T04:48:12;13.90;99.90
52867;DHT22;38739;53.324;6.862;2023-10-09T04:51:00;14.00;99.90
52867;DHT22;38739;53.324;6.862;2023-10-09T04:53:45;14.00;99.90
52867;DHT22;38739;53.324;6.862;2023-10-09T04:56:20;14.00;99.90
52867;DHT22;38739;53.324;6.862;2023-10-09T04:58:49;14.00;99.90
52867;DHT22;38739;53.324;6.862;2023-10-09T05:01:29;14.00;99.90
52867;DHT22;38739;53.324;6.862;2023-10-09T05:04:17;14.00;99.90
52867;DHT22;38739;53.324;6.862;2023-10-09T05:07:00;14.00;99.90
52867;DHT22;38739;53.324;6.862;2023-10-09T05:09:46;14.00;99.90
52867;DHT22;38739;53.324;6.862;2023-10-09T05:12:22;14.10;99.90
52867;DHT22;38739;53.324;6.862;2023-10-09T05:14:52;14.10;99.90
52867;DHT22;38739;53.324;6.862;2023-10-09T05:17:35;14.10;99.90
52867;DHT22;38739;53.324;6.862;2023-10-09T05:20:04;14.10;99.90
52867;DHT22;38739;53.324;6.862;2023-10-09T05:22:48;14.10;99.90
52867;DHT22;38739;53.324;6.862;2023-10-09T05:25:27;14.20;99.90
52867;DHT22;38739;53.324;6.862;2023-10-09T05:28:11;14.20;99.90
52867;DHT22;38739;53.324;6.862;2023-10-09T05:30:56;14.30;99.90
52867;DHT22;38739;53.324;6.862;2023-10-09T05:33:37;14.40;99.90
52867;DHT22;38739;53.324;6.862;2023-10-09T05:36:05;14.50;99.90
52867;DHT22;38739;53.324;6.862;2023-10-09T05:38:56;14.50;99.90
52867;DHT22;38739;53.324;6.862;2023-10-09T05:41:42;14.70;99.90
52867;DHT22;38739;53.324;6.862;2023-10-09T05:44:14;14.70;99.90
52867;DHT22;38739;53.324;6.862;2023-10-09T05:46:58;14.80;99.90
52867;DHT22;38739;53.324;6.862;2023-10-09T05:49:50;14.80;99.90
52867;DHT22;38739;53.324;6.862;2023-10-09T05:52:34;14.90;99.90
52867;DHT22;38739;53.324;6.862;2023-10-09T05:55:09;14.90;99.90
52867;DHT22;38739;53.324;6.862;2023-10-09T05:57:53;14.90;99.90
52867;DHT22;38739;53.324;6.862;2023-10-09T06:00:28;14.90;99.90
52867;DHT22;38739;53.324;6.862;2023-10-09T06:03:13;14.90;99.90
52867;DHT22;38739;53.324;6.862;2023-10-09T06:05:44;15.00;99.90
52867;DHT22;38739;53.324;6.862;2023-10-09T06:08:31;15.00;99.90
52867;DHT22;38739;53.324;6.862;2023-10-09T06:11:09;15.10;99.90
52867;DHT22;38739;53.324;6.862;2023-10-09T06:13:55;15.10;99.90
52867;DHT22;38739;53.324;6.862;2023-10-09T06:16:40;15.20;99.90
52867;DHT22;38739;53.324;6.862;2023-10-09T06:19:11;15.20;99.90
52867;DHT22;38739;53.324;6.862;2023-10-09T06:21:49;15.20;99.90
52867;DHT22;38739;53.324;6.862;2023-10-09T06:24:22;15.20;99.90
52867;DHT22;38739;53.324;6.862;2023-10-09T06:27:07;15.20;99.90
52867;DHT22;38739;53.324;6.862;2023-10-09T06:29:32;15.20;99.90
52867;DHT22;38739;53.324;6.862;2023-10-09T06:32:05;15.20;99.90
52867;DHT22;38739;53.324;6.862;2023-10-09T06:34:52;15.30;99.90
52867;DHT22;38739;53.324;6.862;2023-10-09T06:37:19;15.30;99.90
52867;DHT22;38739;53.324;6.862;2023-10-09T06:39:54;15.20;99.90
52867;DHT22;38739;53.324;6.862;2023-10-09T06:42:27;15.30;99.90
52867;DHT22;38739;53.324;6.862;2023-10-09T06:47:48;15.30;99.90
52867;DHT22;38739;53.324;6.862;2023-10-09T06:50:35;15.30;99.90
52867;DHT22;38739;53.324;6.862;2023-10-09T06:53:19;15.30;99.90
52867;DHT22;38739;53.324;6.862;2023-10-09T06:55:46;15.30;99.90
52867;DHT22;38739;53.324;6.862;2023-10-09T06:58:19;15.40;99.90
52867;DHT22;38739;53.324;6.862;2023-10-09T07:00:55;15.40;99.90
52867;DHT22;38739;53.324;6.862;2023-10-09T07:03:27;15.40;99.90
52867;DHT22;38739;53.324;6.862;2023-10-09T07:06:10;15.40;99.90
52867;DHT22;38739;53.324;6.862;2023-10-09T07:08:55;15.40;99.90
52867;DHT22;38739;53.324;6.862;2023-10-09T07:11:41;15.40;99.90
52867;DHT22;38739;53.324;6.862;2023-10-09T07:17:06;15.50;99.90
52867;DHT22;38739;53.324;6.862;2023-10-09T07:19:44;15.50;99.90
52867;DHT22;38739;53.324;6.862;2023-10-09T07:22:13;15.50;99.90
52867;DHT22;38739;53.324;6.862;2023-10-09T07:24:50;15.50;99.90
52867;DHT22;38739;53.324;6.862;2023-10-09T07:27:30;15.50;99.90
52867;DHT22;38739;53.324;6.862;2023-10-09T07:30:16;15.50;99.90
52867;DHT22;38739;53.324;6.862;2023-10-09T07:33:04;15.50;99.90
52867;DHT22;38739;53.324;6.862;2023-10-09T07:35:34;15.50;99.90
52867;DHT22;38739;53.324;6.862;2023-10-09T07:38:17;15.60;99.90
52867;DHT22;38739;53.324;6.862;2023-10-09T07:40:51;15.60;99.90
52867;DHT22;38739;53.324;6.862;2023-10-09T07:43:45;15.60;99.90
52867;DHT22;38739;53.324;6.862;2023-10-09T07:46:16;15.60;99.90
52867;DHT22;38739;53.324;6.862;2023-10-09T07:49:03;15.60;99.90
52867;DHT22;38739;53.324;6.862;2023-10-09T07:51:43;15.60;99.90
52867;DHT22;38739;53.324;6.862;2023-10-09T07:54:11;15.60;99.90
52867;DHT22;38739;53.324;6.862;2023-10-09T07:56:41;15.60;99.90
52867;DHT22;38739;53.324;6.862;2023-10-09T07:59:11;15.60;99.90
52867;DHT22;38739;53.324;6.862;2023-10-09T08:01:41;15.70;99.90
52867;DHT22;38739;53.324;6.862;2023-10-09T08:04:29;15.70;99.90
52867;DHT22;38739;53.324;6.862;2023-10-09T08:07:08;15.70;99.90
52867;DHT22;38739;53.324;6.862;2023-10-09T08:09:35;15.70;99.90
52867;DHT22;38739;53.324;6.862;2023-10-09T08:12:12;15.70;99.90
52867;DHT22;38739;53.324;6.862;2023-10-09T08:15:02;15.70;99.90
52867;DHT22;38739;53.324;6.862;2023-10-09T08:17:47;15.70;99.90
52867;DHT22;38739;53.324;6.862;2023-10-09T08:20:23;15.70;99.90
52867;DHT22;38739;53.324;6.862;2023-10-09T08:22:55;15.80;99.90
52867;DHT22;38739;53.324;6.862;2023-10-09T08:25:22;15.80;99.90
52867;DHT22;38739;53.324;6.862;2023-10-09T08:28:03;15.80;99.90
52867;DHT22;38739;53.324;6.862;2023-10-09T08:30:57;15.80;99.90
52867;DHT22;38739;53.324;6.862;2023-10-09T08:33:30;15.80;99.90
52867;DHT22;38739;53.324;6.862;2023-10-09T08:36:09;15.90;99.90
52867;DHT22;38739;53.324;6.862;2023-10-09T08:38:40;15.90;99.90
52867;DHT22;38739;53.324;6.862;2023-10-09T08:41:12;16.00;99.90
52867;DHT22;38739;53.324;6.862;2023-10-09T08:43:49;16.00;99.90
52867;DHT22;38739;53.324;6.862;2023-10-09T08:46:25;16.00;99.90
52867;DHT22;38739;53.324;6.862;2023-10-09T08:48:58;16.00;99.90
52867;DHT22;38739;53.324;6.862;2023-10-09T08:51:30;16.00;99.90
52867;DHT22;38739;53.324;6.862;2023-10-09T08:54:00;16.00;99.90
52867;DHT22;38739;53.324;6.862;2023-10-09T08:56:26;16.00;99.90
52867;DHT22;38739;53.324;6.862;2023-10-09T08:58:55;16.00;99.90
52867;DHT22;38739;53.324;6.862;2023-10-09T09:01:21;16.00;99.90
52867;DHT22;38739;53.324;6.862;2023-10-09T09:03:49;16.00;99.90
52867;DHT22;38739;53.324;6.862;2023-10-09T09:06:19;16.00;99.90
52867;DHT22;38739;53.324;6.862;2023-10-09T09:08:46;16.00;99.90
52867;DHT22;38739;53.324;6.862;2023-10-09T09:11:16;16.00;99.90
52867;DHT22;38739;53.324;6.862;2023-10-09T09:13:48;16.10;99.90
52867;DHT22;38739;53.324;6.862;2023-10-09T09:16:18;16.10;99.90
52867;DHT22;38739;53.324;6.862;2023-10-09T09:21:18;16.20;99.90
52867;DHT22;38739;53.324;6.862;2023-10-09T09:23:58;16.20;99.90
52867;DHT22;38739;53.324;6.862;2023-10-09T09:26:37;16.30;99.90
52867;DHT22;38739;53.324;6.862;2023-10-09T09:29:06;16.40;99.90
52867;DHT22;38739;53.324;6.862;2023-10-09T09:31:35;16.40;99.90
52867;DHT22;38739;53.324;6.862;2023-10-09T09:34:05;16.40;99.90
52867;DHT22;38739;53.324;6.862;2023-10-09T09:36:59;16.50;99.90
52867;DHT22;38739;53.324;6.862;2023-10-09T09:39:29;16.50;99.90
52867;DHT22;38739;53.324;6.862;2023-10-09T09:41:59;16.50;99.90
52867;DHT22;38739;53.324;6.862;2023-10-09T09:44:39;16.60;99.90
52867;DHT22;38739;53.324;6.862;2023-10-09T09:49:51;16.60;99.90
52867;DHT22;38739;53.324;6.862;2023-10-09T09:52:18;16.60;99.90
52867;DHT22;38739;53.324;6.862;2023-10-09T09:54:44;16.60;99.90
52867;DHT22;38739;53.324;6.862;2023-10-09T09:57:16;16.50;99.90
52867;DHT22;38739;53.324;6.862;2023-10-09T09:59:52;16.60;99.90
52867;DHT22;38739;53.324;6.862;2023-10-09T10:02:35;16.60;99.90
52867;DHT22;38739;53.324;6.862;2023-10-09T10:05:05;16.60;99.90
52867;DHT22;38739;53.324;6.862;2023-10-09T10:07:33;16.60;99.90
52867;DHT22;38739;53.324;6.862;2023-10-09T10:10:37;16.60;99.90
52867;DHT22;38739;53.324;6.862;2023-10-09T10:13:04;16.60;99.90
52867;DHT22;38739;53.324;6.862;2023-10-09T10:18:23;16.60;99.90
52867;DHT22;38739;53.324;6.862;2023-10-09T10:24:00;16.60;99.90
52867;DHT22;38739;53.324;6.862;2023-10-09T10:26:32;16.60;99.90
52867;DHT22;38739;53.324;6.862;2023-10-09T10:31:56;16.60;99.90
52867;DHT22;38739;53.324;6.862;2023-10-09T10:34:24;16.60;99.90
52867;DHT22;38739;53.324;6.862;2023-10-09T10:36:53;16.50;99.90
52867;DHT22;38739;53.324;6.862;2023-10-09T10:39:26;16.50;99.90
52867;DHT22;38739;53.324;6.862;2023-10-09T10:42:10;16.50;99.90
52867;DHT22;38739;53.324;6.862;2023-10-09T10:44:41;16.50;99.90
52867;DHT22;38739;53.324;6.862;2023-10-09T10:47:12;16.50;99.90
52867;DHT22;38739;53.324;6.862;2023-10-09T10:49:54;16.50;99.90
52867;DHT22;38739;53.324;6.862;2023-10-09T10:52:25;16.50;99.90
52867;DHT22;38739;53.324;6.862;2023-10-09T10:55:14;16.60;99.90
52867;DHT22;38739;53.324;6.862;2023-10-09T10:57:45;16.60;99.90
52867;DHT22;38739;53.324;6.862;2023-10-09T11:00:27;16.70;99.90
52867;DHT22;38739;53.324;6.862;2023-10-09T11:03:17;16.70;99.90
52867;DHT22;38739;53.324;6.862;2023-10-09T11:05:46;16.80;99.90
52867;DHT22;38739;53.324;6.862;2023-10-09T11:08:17;16.90;99.90
52867;DHT22;38739;53.324;6.862;2023-10-09T11:10:49;17.00;99.90
52867;DHT22;38739;53.324;6.862;2023-10-09T11:13:26;17.00;99.90
52867;DHT22;38739;53.324;6.862;2023-10-09T11:16:00;17.10;99.90
52867;DHT22;38739;53.324;6.862;2023-10-09T11:18:54;17.10;99.90
52867;DHT22;38739;53.324;6.862;2023-10-09T11:21:23;17.00;99.90
52867;DHT22;38739;53.324;6.862;2023-10-09T11:23:57;17.00;99.90
52867;DHT22;38739;53.324;6.862;2023-10-09T11:26:46;17.00;99.90
52867;DHT22;38739;53.324;6.862;2023-10-09T11:29:21;17.00;99.90
52867;DHT22;38739;53.324;6.862;2023-10-09T11:32:07;17.00;99.90
52867;DHT22;38739;53.324;6.862;2023-10-09T11:45:06;17.10;99.90
52867;DHT22;38739;53.324;6.862;2023-10-09T12:24:09;17.00;99.90
52867;DHT22;38739;53.324;6.862;2023-10-09T12:26:38;17.00;99.90
52867;DHT22;38739;53.324;6.862;2023-10-09T12:29:06;17.10;99.90
52867;DHT22;38739;53.324;6.862;2023-10-09T12:31:37;17.10;99.90
52867;DHT22;38739;53.324;6.862;2023-10-09T12:34:02;17.10;99.90
52867;DHT22;38739;53.324;6.862;2023-10-09T12:36:28;17.00;99.90
52867;DHT22;38739;53.324;6.862;2023-10-09T12:38:54;17.00;99.90
52867;DHT22;38739;53.324;6.862;2023-10-09T12:41:24;17.00;99.90
52867;DHT22;38739;53.324;6.862;2023-10-09T12:43:54;17.00;99.90
52867;DHT22;38739;53.324;6.862;2023-10-09T12:46:20;17.00;99.90
52867;DHT22;38739;53.324;6.862;2023-10-09T12:48:54;17.00;99.90
52867;DHT22;38739;53.324;6.862;2023-10-09T12:51:21;17.00;99.90
52867;DHT22;38739;53.324;6.862;2023-10-09T12:53:51;16.90;99.90
52867;DHT22;38739;53.324;6.862;2023-10-09T12:56:26;16.90;99.90
52867;DHT22;38739;53.324;6.862;2023-10-09T12:59:02;16.90;99.90
52867;DHT22;38739;53.324;6.862;2023-10-09T13:01:30;16.80;99.90
52867;DHT22;38739;53.324;6.862;2023-10-09T13:04:11;16.80;99.90
52867;DHT22;38739;53.324;6.862;2023-10-09T13:06:40;16.80;99.90
52867;DHT22;38739;53.324;6.862;2023-10-09T13:09:18;16.80;99.90
52867;DHT22;38739;53.324;6.862;2023-10-09T13:12:09;16.80;99.90
52867;DHT22;38739;53.324;6.862;2023-10-09T13:14:35;16.80;99.90
52867;DHT22;38739;53.324;6.862;2023-10-09T13:17:01;16.80;99.90
52867;DHT22;38739;53.324;6.862;2023-10-09T13:19:35;16.80;99.90
52867;DHT22;38739;53.324;6.862;2023-10-09T13:22:01;16.80;99.90
52867;DHT22;38739;53.324;6.862;2023-10-09T13:24:29;16.80;99.90
52867;DHT22;38739;53.324;6.862;2023-10-09T13:26:56;16.80;99.90
52867;DHT22;38739;53.324;6.862;2023-10-09T13:29:24;16.80;99.90
52867;DHT22;38739;53.324;6.862;2023-10-09T13:31:50;16.80;99.90
52867;DHT22;38739;53.324;6.862;2023-10-09T13:34:23;16.80;99.90
52867;DHT22;38739;53.324;6.862;2023-10-09T13:36:53;16.80;99.90
52867;DHT22;38739;53.324;6.862;2023-10-09T13:39:20;16.70;99.90
52867;DHT22;38739;53.324;6.862;2023-10-09T13:41:52;16.70;99.90
52867;DHT22;38739;53.324;6.862;2023-10-09T13:44:36;16.70;99.90
52867;DHT22;38739;53.324;6.862;2023-10-09T13:47:04;16.70;99.90
52867;DHT22;38739;53.324;6.862;2023-10-09T13:49:34;16.60;99.90
52867;DHT22;38739;53.324;6.862;2023-10-09T13:52:03;16.70;99.90
52867;DHT22;38739;53.324;6.862;2023-10-09T13:54:30;16.60;99.90
52867;DHT22;38739;53.324;6.862;2023-10-09T13:56:59;16.70;99.90
52867;DHT22;38739;53.324;6.862;2023-10-09T13:59:25;16.60;99.90
52867;DHT22;38739;53.324;6.862;2023-10-09T14:01:52;16.60;99.90
52867;DHT22;38739;53.324;6.862;2023-10-09T14:04:23;16.60;99.90
52867;DHT22;38739;53.324;6.862;2023-10-09T14:06:49;16.60;99.90
52867;DHT22;38739;53.324;6.862;2023-10-09T14:09:23;16.50;99.90
52867;DHT22;38739;53.324;6.862;2023-10-09T14:12:01;16.50;99.90
52867;DHT22;38739;53.324;6.862;2023-10-09T14:14:38;16.60;99.90
52867;DHT22;38739;53.324;6.862;2023-10-09T14:17:09;16.60;99.90
52867;DHT22;38739;53.324;6.862;2023-10-09T14:19:42;16.60;99.90
52867;DHT22;38739;53.324;6.862;2023-10-09T14:22:18;16.60;99.90
52867;DHT22;38739;53.324;6.862;2023-10-09T14:24:45;16.70;99.90
52867;DHT22;38739;53.324;6.862;2023-10-09T14:27:12;16.70;99.90
52867;DHT22;38739;53.324;6.862;2023-10-09T14:29:45;16.70;99.90
52867;DHT22;38739;53.324;6.862;2023-10-09T14:32:11;16.80;99.90
52867;DHT22;38739;53.324;6.862;2023-10-09T14:34:40;16.80;99.90
52867;DHT22;38739;53.324;6.862;2023-10-09T14:37:13;16.80;99.90
52867;DHT22;38739;53.324;6.862;2023-10-09T14:39:41;16.80;99.90
52867;DHT22;38739;53.324;6.862;2023-10-09T14:42:07;16.80;99.90
52867;DHT22;38739;53.324;6.862;2023-10-09T14:44:36;16.80;99.90
52867;DHT22;38739;53.324;6.862;2023-10-09T14:47:06;16.80;99.90
52867;DHT22;38739;53.324;6.862;2023-10-09T14:49:33;16.70;99.90
52867;DHT22;38739;53.324;6.862;2023-10-09T14:52:10;16.70;99.90
52867;DHT22;38739;53.324;6.862;2023-10-09T14:54:36;16.70;99.90
52867;DHT22;38739;53.324;6.862;2023-10-09T14:57:04;16.70;99.90
52867;DHT22;38739;53.324;6.862;2023-10-09T14:59:33;16.80;99.90
52867;DHT22;38739;53.324;6.862;2023-10-09T15:01:59;16.80;99.90
52867;DHT22;38739;53.324;6.862;2023-10-09T15:04:25;16.80;99.90
52867;DHT22;38739;53.324;6.862;2023-10-09T15:06:52;16.80;99.90
52867;DHT22;38739;53.324;6.862;2023-10-09T15:09:18;16.80;99.90
52867;DHT22;38739;53.324;6.862;2023-10-09T15:11:54;16.80;99.90
52867;DHT22;38739;53.324;6.862;2023-10-09T15:14:20;16.80;99.90
52867;DHT22;38739;53.324;6.862;2023-10-09T15:16:47;16.70;99.90
52867;DHT22;38739;53.324;6.862;2023-10-09T15:19:14;16.70;99.90
52867;DHT22;38739;53.324;6.862;2023-10-09T15:21:40;16.70;99.90
52867;DHT22;38739;53.324;6.862;2023-10-09T15:24:15;16.70;99.90
52867;DHT22;38739;53.324;6.862;2023-10-09T15:26:51;16.60;99.90
52867;DHT22;38739;53.324;6.862;2023-10-09T15:29:23;16.60;99.90
52867;DHT22;38739;53.324;6.862;2023-10-09T15:31:58;16.60;99.90
52867;DHT22;38739;53.324;6.862;2023-10-09T15:34:39;16.60;99.90
52867;DHT22;38739;53.324;6.862;2023-10-09T15:37:05;16.60;99.90
52867;DHT22;38739;53.324;6.862;2023-10-09T15:39:34;16.50;99.90
52867;DHT22;38739;53.324;6.862;2023-10-09T15:42:00;16.50;99.90
52867;DHT22;38739;53.324;6.862;2023-10-09T15:44:26;16.50;99.90
52867;DHT22;38739;53.324;6.862;2023-10-09T15:46:53;16.50;99.90
52867;DHT22;38739;53.324;6.862;2023-10-09T15:49:26;16.40;99.90
52867;DHT22;38739;53.324;6.862;2023-10-09T15:51:53;16.40;99.90
52867;DHT22;38739;53.324;6.862;2023-10-09T15:54:18;16.40;99.90
52867;DHT22;38739;53.324;6.862;2023-10-09T15:56:45;16.40;99.90
52867;DHT22;38739;53.324;6.862;2023-10-09T15:59:11;16.40;99.90
52867;DHT22;38739;53.324;6.862;2023-10-09T16:01:38;16.40;99.90
52867;DHT22;38739;53.324;6.862;2023-10-09T16:04:11;16.40;99.90
52867;DHT22;38739;53.324;6.862;2023-10-09T16:06:38;16.40;99.90
52867;DHT22;38739;53.324;6.862;2023-10-09T16:09:07;16.40;99.90
52867;DHT22;38739;53.324;6.862;2023-10-09T16:11:40;16.30;99.90
52867;DHT22;38739;53.324;6.862;2023-10-09T16:14:07;16.30;99.90
52867;DHT22;38739;53.324;6.862;2023-10-09T16:16:36;16.30;99.90
52867;DHT22;38739;53.324;6.862;2023-10-09T16:19:09;16.30;99.90
52867;DHT22;38739;53.324;6.862;2023-10-09T16:21:35;16.30;99.90
52867;DHT22;38739;53.324;6.862;2023-10-09T16:24:02;16.20;99.90
52867;DHT22;38739;53.324;6.862;2023-10-09T16:26:34;16.20;99.90
52867;DHT22;38739;53.324;6.862;2023-10-09T16:29:14;16.20;99.90
52867;DHT22;38739;53.324;6.862;2023-10-09T16:31:40;16.20;99.90
52867;DHT22;38739;53.324;6.862;2023-10-09T16:34:06;16.20;99.90
52867;DHT22;38739;53.324;6.862;2023-10-09T16:36:35;16.10;99.90
52867;DHT22;38739;53.324;6.862;2023-10-09T16:39:03;16.10;99.90
52867;DHT22;38739;53.324;6.862;2023-10-09T16:41:28;16.10;99.90
52867;DHT22;38739;53.324;6.862;2023-10-09T16:43:54;16.10;99.90
52867;DHT22;38739;53.324;6.862;2023-10-09T16:46:22;16.00;99.90
52867;DHT22;38739;53.324;6.862;2023-10-09T16:48:51;16.00;99.90
52867;DHT22;38739;53.324;6.862;2023-10-09T16:51:21;16.00;99.90
52867;DHT22;38739;53.324;6.862;2023-10-09T16:53:49;15.90;99.90
52867;DHT22;38739;53.324;6.862;2023-10-09T16:56:22;15.90;99.90
52867;DHT22;38739;53.324;6.862;2023-10-09T16:58:56;15.90;99.90
52867;DHT22;38739;53.324;6.862;2023-10-09T17:01:21;15.90;99.90
52867;DHT22;38739;53.324;6.862;2023-10-09T17:03:48;15.80;99.90
52867;DHT22;38739;53.324;6.862;2023-10-09T17:06:21;15.80;99.90
52867;DHT22;38739;53.324;6.862;2023-10-09T17:08:47;15.80;99.90
52867;DHT22;38739;53.324;6.862;2023-10-09T17:11:18;15.80;99.90
52867;DHT22;38739;53.324;6.862;2023-10-09T17:13:48;15.80;99.90
52867;DHT22;38739;53.324;6.862;2023-10-09T17:16:19;15.80;99.90
52867;DHT22;38739;53.324;6.862;2023-10-09T17:18:46;15.70;99.90